sensor_id;sensor_type;location;lat;lon;timestamp;P1;durP1;ratioP1;P2;durP2;ratioP2
21786;SDS011;11055;50.870;4.316;2023-04-03T00:01:04;8.57;;;5.75;;
21786;SDS011;11055;50.870;4.316;2023-04-03T00:03:31;6.50;;;5.43;;
21786;SDS011;11055;50.870;4.316;2023-04-03T00:05:57;8.52;;;5.43;;
21786;SDS011;11055;50.870;4.316;2023-04-03T00:08:22;10.98;;;5.55;;
21786;SDS011;11055;50.870;4.316;2023-04-03T00:10:48;9.25;;;5.13;;
21786;SDS011;11055;50.870;4.316;2023-04-03T00:13:15;7.18;;;4.95;;
21786;SDS011;11055;50.870;4.316;2023-04-03T00:15:41;9.18;;;4.93;;
21786;SDS011;11055;50.870;4.316;2023-04-03T00:18:07;7.63;;;5.03;;
21786;SDS011;11055;50.870;4.316;2023-04-03T00:20:33;8.05;;;4.68;;
21786;SDS011;11055;50.870;4.316;2023-04-03T00:22:59;8.70;;;5.07;;
21786;SDS011;11055;50.870;4.316;2023-04-03T00:25:25;7.22;;;5.70;;
21786;SDS011;11055;50.870;4.316;2023-04-03T00:27:50;7.13;;;5.05;;
21786;SDS011;11055;50.870;4.316;2023-04-03T00:30:17;6.13;;;4.65;;
21786;SDS011;11055;50.870;4.316;2023-04-03T00:32:45;6.32;;;5.10;;
21786;SDS011;11055;50.870;4.316;2023-04-03T00:35:12;9.20;;;5.20;;
21786;SDS011;11055;50.870;4.316;2023-04-03T00:37:40;10.60;;;4.82;;
21786;SDS011;11055;50.870;4.316;2023-04-03T00:40:07;6.63;;;5.15;;
21786;SDS011;11055;50.870;4.316;2023-04-03T00:42:33;8.20;;;4.88;;
21786;SDS011;11055;50.870;4.316;2023-04-03T00:47:25;7.60;;;5.03;;
21786;SDS011;11055;50.870;4.316;2023-04-03T00:49:51;8.38;;;5.00;;
21786;SDS011;11055;50.870;4.316;2023-04-03T00:52:19;8.32;;;5.40;;
21786;SDS011;11055;50.870;4.316;2023-04-03T00:54:50;7.50;;;5.20;;
21786;SDS011;11055;50.870;4.316;2023-04-03T00:57:19;6.07;;;4.28;;
21786;SDS011;11055;50.870;4.316;2023-04-03T00:59:49;6.72;;;4.70;;
21786;SDS011;11055;50.870;4.316;2023-04-03T01:02:18;8.55;;;4.75;;
21786;SDS011;11055;50.870;4.316;2023-04-03T01:04:44;7.47;;;4.57;;
21786;SDS011;11055;50.870;4.316;2023-04-03T01:09:42;6.87;;;4.80;;
21786;SDS011;11055;50.870;4.316;2023-04-03T01:12:12;7.15;;;4.82;;
21786;SDS011;11055;50.870;4.316;2023-04-03T01:14:42;6.32;;;4.60;;
21786;SDS011;11055;50.870;4.316;2023-04-03T01:19:57;8.60;;;4.85;;
21786;SDS011;11055;50.870;4.316;2023-04-03T01:22:30;6.63;;;4.88;;
21786;SDS011;11055;50.870;4.316;2023-04-03T01:25:05;5.65;;;4.50;;
21786;SDS011;11055;50.870;4.316;2023-04-03T01:27:31;8.43;;;4.80;;
21786;SDS011;11055;50.870;4.316;2023-04-03T01:29:56;7.68;;;5.05;;
21786;SDS011;11055;50.870;4.316;2023-04-03T01:32:22;6.88;;;5.05;;
21786;SDS011;11055;50.870;4.316;2023-04-03T01:34:48;7.85;;;5.03;;
21786;SDS011;11055;50.870;4.316;2023-04-03T01:37:14;7.97;;;5.13;;
21786;SDS011;11055;50.870;4.316;2023-04-03T01:39:39;6.45;;;4.85;;
21786;SDS011;11055;50.870;4.316;2023-04-03T01:42:05;7.68;;;5.00;;
21786;SDS011;11055;50.870;4.316;2023-04-03T01:44:31;7.07;;;4.95;;
21786;SDS011;11055;50.870;4.316;2023-04-03T01:46:56;6.65;;;4.45;;
21786;SDS011;11055;50.870;4.316;2023-04-03T01:49:22;7.85;;;5.00;;
21786;SDS011;11055;50.870;4.316;2023-04-03T01:51:48;6.95;;;5.28;;
21786;SDS011;11055;50.870;4.316;2023-04-03T01:54:13;6.60;;;4.82;;
21786;SDS011;11055;50.870;4.316;2023-04-03T01:56:39;5.50;;;4.65;;
21786;SDS011;11055;50.870;4.316;2023-04-03T01:59:05;6.70;;;4.57;;
21786;SDS011;11055;50.870;4.316;2023-04-03T02:01:30;7.20;;;4.88;;
21786;SDS011;11055;50.870;4.316;2023-04-03T02:03:56;9.65;;;5.78;;
21786;SDS011;11055;50.870;4.316;2023-04-03T02:06:22;6.80;;;5.05;;
21786;SDS011;11055;50.870;4.316;2023-04-03T02:08:47;7.15;;;4.70;;
21786;SDS011;11055;50.870;4.316;2023-04-03T02:11:13;8.43;;;4.70;;
21786;SDS011;11055;50.870;4.316;2023-04-03T02:13:39;6.00;;;4.72;;
21786;SDS011;11055;50.870;4.316;2023-04-03T02:16:09;5.28;;;4.50;;
21786;SDS011;11055;50.870;4.316;2023-04-03T02:21:02;6.50;;;4.43;;
21786;SDS011;11055;50.870;4.316;2023-04-03T02:23:27;7.28;;;4.60;;
21786;SDS011;11055;50.870;4.316;2023-04-03T02:25:53;8.63;;;4.97;;
21786;SDS011;11055;50.870;4.316;2023-04-03T02:28:26;6.38;;;4.47;;
21786;SDS011;11055;50.870;4.316;2023-04-03T02:30:52;6.60;;;4.55;;
21786;SDS011;11055;50.870;4.316;2023-04-03T02:33:18;6.78;;;4.35;;
21786;SDS011;11055;50.870;4.316;2023-04-03T02:35:43;8.85;;;5.10;;
21786;SDS011;11055;50.870;4.316;2023-04-03T02:38:11;7.05;;;4.40;;
21786;SDS011;11055;50.870;4.316;2023-04-03T02:40:37;6.10;;;4.88;;
21786;SDS011;11055;50.870;4.316;2023-04-03T02:43:02;8.38;;;4.72;;
21786;SDS011;11055;50.870;4.316;2023-04-03T02:45:28;5.60;;;4.60;;
21786;SDS011;11055;50.870;4.316;2023-04-03T02:47:54;8.80;;;4.70;;
21786;SDS011;11055;50.870;4.316;2023-04-03T02:50:19;8.32;;;4.70;;
21786;SDS011;11055;50.870;4.316;2023-04-03T02:52:45;8.20;;;4.57;;
21786;SDS011;11055;50.870;4.316;2023-04-03T02:55:13;7.20;;;4.85;;
21786;SDS011;11055;50.870;4.316;2023-04-03T02:57:40;8.20;;;4.80;;
21786;SDS011;11055;50.870;4.316;2023-04-03T03:00:06;6.72;;;5.20;;
21786;SDS011;11055;50.870;4.316;2023-04-03T03:02:34;6.30;;;4.90;;
21786;SDS011;11055;50.870;4.316;2023-04-03T03:05:00;5.28;;;4.28;;
21786;SDS011;11055;50.870;4.316;2023-04-03T03:07:26;6.05;;;4.55;;
21786;SDS011;11055;50.870;4.316;2023-04-03T03:09:51;6.55;;;5.25;;
21786;SDS011;11055;50.870;4.316;2023-04-03T03:12:17;7.03;;;5.72;;
21786;SDS011;11055;50.870;4.316;2023-04-03T03:14:46;8.02;;;5.07;;
21786;SDS011;11055;50.870;4.316;2023-04-03T03:17:13;5.90;;;4.97;;
21786;SDS011;11055;50.870;4.316;2023-04-03T03:19:38;5.55;;;4.97;;
21786;SDS011;11055;50.870;4.316;2023-04-03T03:22:04;7.90;;;6.13;;
21786;SDS011;11055;50.870;4.316;2023-04-03T03:24:30;8.57;;;5.32;;
21786;SDS011;11055;50.870;4.316;2023-04-03T03:26:56;8.57;;;5.35;;
21786;SDS011;11055;50.870;4.316;2023-04-03T03:29:21;7.38;;;5.20;;
21786;SDS011;11055;50.870;4.316;2023-04-03T03:31:47;8.63;;;5.72;;
21786;SDS011;11055;50.870;4.316;2023-04-03T03:34:13;7.82;;;5.65;;
21786;SDS011;11055;50.870;4.316;2023-04-03T03:36:38;6.22;;;5.63;;
21786;SDS011;11055;50.870;4.316;2023-04-03T03:39:04;8.27;;;5.30;;
21786;SDS011;11055;50.870;4.316;2023-04-03T03:41:30;8.32;;;6.10;;
21786;SDS011;11055;50.870;4.316;2023-04-03T03:43:56;6.15;;;5.25;;
21786;SDS011;11055;50.870;4.316;2023-04-03T03:46:22;8.40;;;6.13;;
21786;SDS011;11055;50.870;4.316;2023-04-03T03:48:47;8.77;;;6.03;;
21786;SDS011;11055;50.870;4.316;2023-04-03T03:51:13;7.97;;;5.60;;
21786;SDS011;11055;50.870;4.316;2023-04-03T03:53:39;8.65;;;5.90;;
21786;SDS011;11055;50.870;4.316;2023-04-03T03:56:05;10.52;;;5.78;;
21786;SDS011;11055;50.870;4.316;2023-04-03T03:58:31;8.07;;;6.05;;
21786;SDS011;11055;50.870;4.316;2023-04-03T04:01:00;6.93;;;5.50;;
21786;SDS011;11055;50.870;4.316;2023-04-03T04:03:26;7.38;;;6.07;;
21786;SDS011;11055;50.870;4.316;2023-04-03T04:05:52;7.07;;;6.10;;
21786;SDS011;11055;50.870;4.316;2023-04-03T04:08:18;11.07;;;5.90;;
21786;SDS011;11055;50.870;4.316;2023-04-03T04:10:44;8.57;;;5.85;;
21786;SDS011;11055;50.870;4.316;2023-04-03T04:13:10;6.13;;;5.60;;
21786;SDS011;11055;50.870;4.316;2023-04-03T04:15:35;10.25;;;6.18;;
21786;SDS011;11055;50.870;4.316;2023-04-03T04:18:01;8.55;;;6.00;;
21786;SDS011;11055;50.870;4.316;2023-04-03T04:20:27;9.15;;;5.68;;
21786;SDS011;11055;50.870;4.316;2023-04-03T04:22:52;9.35;;;5.80;;
21786;SDS011;11055;50.870;4.316;2023-04-03T04:25:18;9.57;;;6.35;;
21786;SDS011;11055;50.870;4.316;2023-04-03T04:27:44;9.68;;;6.30;;
21786;SDS011;11055;50.870;4.316;2023-04-03T04:30:10;9.20;;;6.47;;
21786;SDS011;11055;50.870;4.316;2023-04-03T04:32:36;6.88;;;6.03;;
21786;SDS011;11055;50.870;4.316;2023-04-03T04:35:02;8.15;;;5.97;;
21786;SDS011;11055;50.870;4.316;2023-04-03T04:37:28;11.02;;;6.78;;
21786;SDS011;11055;50.870;4.316;2023-04-03T04:39:54;9.63;;;6.28;;
21786;SDS011;11055;50.870;4.316;2023-04-03T04:42:20;9.98;;;7.20;;
21786;SDS011;11055;50.870;4.316;2023-04-03T04:44:46;10.10;;;7.07;;
21786;SDS011;11055;50.870;4.316;2023-04-03T04:47:11;9.13;;;7.57;;
21786;SDS011;11055;50.870;4.316;2023-04-03T04:49:37;11.07;;;6.75;;
21786;SDS011;11055;50.870;4.316;2023-04-03T04:52:03;9.15;;;7.28;;
21786;SDS011;11055;50.870;4.316;2023-04-03T04:54:28;9.95;;;7.28;;
21786;SDS011;11055;50.870;4.316;2023-04-03T04:56:54;11.48;;;7.47;;
21786;SDS011;11055;50.870;4.316;2023-04-03T04:59:20;10.20;;;7.85;;
21786;SDS011;11055;50.870;4.316;2023-04-03T05:01:46;10.65;;;7.57;;
21786;SDS011;11055;50.870;4.316;2023-04-03T05:04:11;8.43;;;7.50;;
21786;SDS011;11055;50.870;4.316;2023-04-03T05:06:40;10.95;;;7.57;;
21786;SDS011;11055;50.870;4.316;2023-04-03T05:09:06;10.63;;;8.63;;
21786;SDS011;11055;50.870;4.316;2023-04-03T05:11:31;8.80;;;7.68;;
21786;SDS011;11055;50.870;4.316;2023-04-03T05:13:57;10.75;;;8.20;;
21786;SDS011;11055;50.870;4.316;2023-04-03T05:16:23;10.02;;;7.25;;
21786;SDS011;11055;50.870;4.316;2023-04-03T05:18:49;9.32;;;7.45;;
21786;SDS011;11055;50.870;4.316;2023-04-03T05:21:14;8.80;;;7.88;;
21786;SDS011;11055;50.870;4.316;2023-04-03T05:23:40;9.80;;;8.07;;
21786;SDS011;11055;50.870;4.316;2023-04-03T05:26:06;10.50;;;7.78;;
21786;SDS011;11055;50.870;4.316;2023-04-03T05:28:32;9.93;;;7.32;;
21786;SDS011;11055;50.870;4.316;2023-04-03T05:30:58;11.60;;;8.35;;
21786;SDS011;11055;50.870;4.316;2023-04-03T05:33:24;12.45;;;8.43;;
21786;SDS011;11055;50.870;4.316;2023-04-03T05:35:51;10.90;;;7.90;;
21786;SDS011;11055;50.870;4.316;2023-04-03T05:38:18;11.82;;;8.23;;
21786;SDS011;11055;50.870;4.316;2023-04-03T05:40:43;13.27;;;9.25;;
21786;SDS011;11055;50.870;4.316;2023-04-03T05:43:09;9.57;;;7.78;;
21786;SDS011;11055;50.870;4.316;2023-04-03T05:45:35;9.65;;;8.00;;
21786;SDS011;11055;50.870;4.316;2023-04-03T05:48:01;10.88;;;8.52;;
21786;SDS011;11055;50.870;4.316;2023-04-03T05:50:26;10.65;;;8.45;;
21786;SDS011;11055;50.870;4.316;2023-04-03T05:52:52;9.68;;;8.68;;
21786;SDS011;11055;50.870;4.316;2023-04-03T05:55:22;12.77;;;9.10;;
21786;SDS011;11055;50.870;4.316;2023-04-03T05:57:47;13.85;;;8.73;;
21786;SDS011;11055;50.870;4.316;2023-04-03T06:00:13;13.40;;;8.93;;
21786;SDS011;11055;50.870;4.316;2023-04-03T06:02:42;12.70;;;8.95;;
21786;SDS011;11055;50.870;4.316;2023-04-03T06:05:08;10.18;;;8.38;;
21786;SDS011;11055;50.870;4.316;2023-04-03T06:07:36;13.40;;;9.27;;
21786;SDS011;11055;50.870;4.316;2023-04-03T06:10:02;10.77;;;8.73;;
21786;SDS011;11055;50.870;4.316;2023-04-03T06:12:28;12.02;;;9.18;;
21786;SDS011;11055;50.870;4.316;2023-04-03T06:14:54;14.65;;;9.38;;
21786;SDS011;11055;50.870;4.316;2023-04-03T06:17:20;9.90;;;8.85;;
21786;SDS011;11055;50.870;4.316;2023-04-03T06:19:46;11.52;;;8.50;;
21786;SDS011;11055;50.870;4.316;2023-04-03T06:22:12;11.93;;;8.50;;
21786;SDS011;11055;50.870;4.316;2023-04-03T06:24:38;13.20;;;8.82;;
21786;SDS011;11055;50.870;4.316;2023-04-03T06:27:04;11.52;;;8.57;;
21786;SDS011;11055;50.870;4.316;2023-04-03T06:29:30;11.50;;;8.38;;
21786;SDS011;11055;50.870;4.316;2023-04-03T06:31:56;10.38;;;8.80;;
21786;SDS011;11055;50.870;4.316;2023-04-03T06:34:22;13.35;;;8.90;;
21786;SDS011;11055;50.870;4.316;2023-04-03T06:36:48;11.07;;;8.82;;
21786;SDS011;11055;50.870;4.316;2023-04-03T06:39:20;12.20;;;8.70;;
21786;SDS011;11055;50.870;4.316;2023-04-03T06:41:50;13.32;;;9.43;;
21786;SDS011;11055;50.870;4.316;2023-04-03T06:44:16;14.32;;;9.30;;
21786;SDS011;11055;50.870;4.316;2023-04-03T06:46:42;14.02;;;9.00;;
21786;SDS011;11055;50.870;4.316;2023-04-03T06:49:09;14.10;;;9.80;;
21786;SDS011;11055;50.870;4.316;2023-04-03T06:51:35;12.35;;;8.77;;
21786;SDS011;11055;50.870;4.316;2023-04-03T06:54:01;13.18;;;9.27;;
21786;SDS011;11055;50.870;4.316;2023-04-03T06:56:30;11.80;;;9.02;;
21786;SDS011;11055;50.870;4.316;2023-04-03T06:58:56;11.45;;;9.07;;
21786;SDS011;11055;50.870;4.316;2023-04-03T07:01:26;12.57;;;9.20;;
21786;SDS011;11055;50.870;4.316;2023-04-03T07:03:53;11.15;;;9.00;;
21786;SDS011;11055;50.870;4.316;2023-04-03T07:06:19;10.65;;;8.77;;
21786;SDS011;11055;50.870;4.316;2023-04-03T07:08:45;10.77;;;8.40;;
21786;SDS011;11055;50.870;4.316;2023-04-03T07:11:13;12.73;;;9.55;;
21786;SDS011;11055;50.870;4.316;2023-04-03T07:13:38;15.15;;;9.45;;
21786;SDS011;11055;50.870;4.316;2023-04-03T07:16:05;11.05;;;8.95;;
21786;SDS011;11055;50.870;4.316;2023-04-03T07:18:32;11.10;;;8.82;;
21786;SDS011;11055;50.870;4.316;2023-04-03T07:20:58;11.50;;;9.10;;
21786;SDS011;11055;50.870;4.316;2023-04-03T07:23:24;10.95;;;8.32;;
21786;SDS011;11055;50.870;4.316;2023-04-03T07:25:50;12.55;;;8.38;;
21786;SDS011;11055;50.870;4.316;2023-04-03T07:28:17;10.88;;;9.07;;
21786;SDS011;11055;50.870;4.316;2023-04-03T07:30:48;8.85;;;7.88;;
21786;SDS011;11055;50.870;4.316;2023-04-03T07:33:16;10.93;;;8.10;;
21786;SDS011;11055;50.870;4.316;2023-04-03T07:35:43;11.48;;;8.50;;
21786;SDS011;11055;50.870;4.316;2023-04-03T07:38:09;11.40;;;8.18;;
21786;SDS011;11055;50.870;4.316;2023-04-03T07:40:35;12.60;;;7.75;;
21786;SDS011;11055;50.870;4.316;2023-04-03T07:43:02;9.50;;;7.22;;
21786;SDS011;11055;50.870;4.316;2023-04-03T07:45:28;10.95;;;6.97;;
21786;SDS011;11055;50.870;4.316;2023-04-03T07:47:54;11.32;;;6.85;;
21786;SDS011;11055;50.870;4.316;2023-04-03T07:50:20;9.25;;;6.88;;
21786;SDS011;11055;50.870;4.316;2023-04-03T07:52:47;12.15;;;6.20;;
21786;SDS011;11055;50.870;4.316;2023-04-03T07:55:13;10.93;;;6.10;;
21786;SDS011;11055;50.870;4.316;2023-04-03T07:57:39;11.07;;;6.72;;
21786;SDS011;11055;50.870;4.316;2023-04-03T08:00:05;8.65;;;5.43;;
21786;SDS011;11055;50.870;4.316;2023-04-03T08:02:31;7.88;;;5.82;;
21786;SDS011;11055;50.870;4.316;2023-04-03T08:04:57;8.70;;;5.78;;
21786;SDS011;11055;50.870;4.316;2023-04-03T08:07:23;7.72;;;5.72;;
21786;SDS011;11055;50.870;4.316;2023-04-03T08:09:50;9.07;;;6.35;;
21786;SDS011;11055;50.870;4.316;2023-04-03T08:12:16;9.32;;;6.47;;
21786;SDS011;11055;50.870;4.316;2023-04-03T08:14:42;9.55;;;6.20;;
21786;SDS011;11055;50.870;4.316;2023-04-03T08:17:08;7.80;;;6.28;;
21786;SDS011;11055;50.870;4.316;2023-04-03T08:19:37;8.25;;;6.72;;
21786;SDS011;11055;50.870;4.316;2023-04-03T08:22:03;10.70;;;7.03;;
21786;SDS011;11055;50.870;4.316;2023-04-03T08:24:30;10.93;;;6.90;;
21786;SDS011;11055;50.870;4.316;2023-04-03T08:26:56;11.07;;;7.20;;
21786;SDS011;11055;50.870;4.316;2023-04-03T08:29:22;9.15;;;6.20;;
21786;SDS011;11055;50.870;4.316;2023-04-03T08:31:48;10.23;;;6.20;;
21786;SDS011;11055;50.870;4.316;2023-04-03T08:34:15;10.45;;;6.90;;
21786;SDS011;11055;50.870;4.316;2023-04-03T08:36:41;7.78;;;6.72;;
21786;SDS011;11055;50.870;4.316;2023-04-03T08:39:07;8.27;;;6.30;;
21786;SDS011;11055;50.870;4.316;2023-04-03T08:46:52;9.57;;;6.63;;
21786;SDS011;11055;50.870;4.316;2023-04-03T08:49:42;10.38;;;6.15;;
21786;SDS011;11055;50.870;4.316;2023-04-03T08:52:19;10.68;;;6.00;;
21786;SDS011;11055;50.870;4.316;2023-04-03T08:55:00;8.77;;;6.15;;
21786;SDS011;11055;50.870;4.316;2023-04-03T08:57:35;6.70;;;5.32;;
21786;SDS011;11055;50.870;4.316;2023-04-03T09:00:19;10.35;;;6.28;;
21786;SDS011;11055;50.870;4.316;2023-04-03T09:02:49;10.80;;;5.32;;
21786;SDS011;11055;50.870;4.316;2023-04-03T09:05:19;9.32;;;4.90;;
21786;SDS011;11055;50.870;4.316;2023-04-03T09:08:18;10.57;;;5.88;;
21786;SDS011;11055;50.870;4.316;2023-04-03T09:16:27;7.25;;;5.00;;
21786;SDS011;11055;50.870;4.316;2023-04-03T09:21:39;7.50;;;4.45;;
21786;SDS011;11055;50.870;4.316;2023-04-03T09:24:09;8.98;;;4.10;;
21786;SDS011;11055;50.870;4.316;2023-04-03T09:26:39;6.57;;;4.20;;
21786;SDS011;11055;50.870;4.316;2023-04-03T09:29:24;6.03;;;3.75;;
21786;SDS011;11055;50.870;4.316;2023-04-03T09:31:58;5.97;;;3.28;;
21786;SDS011;11055;50.870;4.316;2023-04-03T09:34:26;5.18;;;3.53;;
21786;SDS011;11055;50.870;4.316;2023-04-03T09:36:54;7.65;;;4.22;;
21786;SDS011;11055;50.870;4.316;2023-04-03T09:39:26;7.78;;;3.70;;
21786;SDS011;11055;50.870;4.316;2023-04-03T09:41:58;7.93;;;3.63;;
21786;SDS011;11055;50.870;4.316;2023-04-03T09:44:31;6.55;;;3.83;;
21786;SDS011;11055;50.870;4.316;2023-04-03T09:46:58;6.60;;;3.38;;
21786;SDS011;11055;50.870;4.316;2023-04-03T09:49:25;6.35;;;2.97;;
21786;SDS011;11055;50.870;4.316;2023-04-03T09:51:51;9.00;;;3.00;;
21786;SDS011;11055;50.870;4.316;2023-04-03T09:54:26;4.05;;;2.90;;
21786;SDS011;11055;50.870;4.316;2023-04-03T09:57:06;4.70;;;2.88;;
21786;SDS011;11055;50.870;4.316;2023-04-03T09:59:35;5.20;;;2.80;;
21786;SDS011;11055;50.870;4.316;2023-04-03T10:04:56;5.37;;;2.93;;
21786;SDS011;11055;50.870;4.316;2023-04-03T10:07:26;5.38;;;2.83;;
21786;SDS011;11055;50.870;4.316;2023-04-03T10:09:58;6.53;;;3.00;;
21786;SDS011;11055;50.870;4.316;2023-04-03T10:12:26;6.40;;;2.67;;
21786;SDS011;11055;50.870;4.316;2023-04-03T10:19:57;6.03;;;3.05;;
21786;SDS011;11055;50.870;4.316;2023-04-03T10:26:02;5.22;;;2.17;;
21786;SDS011;11055;50.870;4.316;2023-04-03T10:28:39;7.05;;;2.70;;
21786;SDS011;11055;50.870;4.316;2023-04-03T10:34:18;3.67;;;2.45;;
21786;SDS011;11055;50.870;4.316;2023-04-03T10:39:27;5.20;;;2.22;;
21786;SDS011;11055;50.870;4.316;2023-04-03T10:42:18;3.75;;;2.00;;
21786;SDS011;11055;50.870;4.316;2023-04-03T10:50:26;4.07;;;2.00;;
21786;SDS011;11055;50.870;4.316;2023-04-03T10:59:00;6.47;;;2.47;;
21786;SDS011;11055;50.870;4.316;2023-04-03T11:01:11;3.90;;;2.40;;
21786;SDS011;11055;50.870;4.316;2023-04-03T11:03:52;5.35;;;2.67;;
21786;SDS011;11055;50.870;4.316;2023-04-03T11:06:21;3.22;;;1.92;;
21786;SDS011;11055;50.870;4.316;2023-04-03T11:08:57;4.80;;;2.33;;
21786;SDS011;11055;50.870;4.316;2023-04-03T11:11:32;3.60;;;2.20;;
21786;SDS011;11055;50.870;4.316;2023-04-03T11:14:11;2.67;;;2.33;;
21786;SDS011;11055;50.870;4.316;2023-04-03T11:16:50;4.10;;;2.03;;
21786;SDS011;11055;50.870;4.316;2023-04-03T11:19:34;4.00;;;2.45;;
21786;SDS011;11055;50.870;4.316;2023-04-03T11:22:08;3.95;;;2.60;;
21786;SDS011;11055;50.870;4.316;2023-04-03T11:24:50;3.30;;;2.05;;
21786;SDS011;11055;50.870;4.316;2023-04-03T11:27:40;9.27;;;4.63;;
21786;SDS011;11055;50.870;4.316;2023-04-03T11:30:19;3.70;;;2.25;;
21786;SDS011;11055;50.870;4.316;2023-04-03T11:35:43;4.18;;;2.38;;
21786;SDS011;11055;50.870;4.316;2023-04-03T11:38:14;3.47;;;2.33;;
21786;SDS011;11055;50.870;4.316;2023-04-03T11:40:47;3.33;;;2.10;;
21786;SDS011;11055;50.870;4.316;2023-04-03T11:45:57;4.45;;;2.60;;
21786;SDS011;11055;50.870;4.316;2023-04-03T11:51:00;3.33;;;1.80;;
21786;SDS011;11055;50.870;4.316;2023-04-03T11:53:47;3.22;;;2.00;;
21786;SDS011;11055;50.870;4.316;2023-04-03T12:04:21;4.97;;;2.25;;
21786;SDS011;11055;50.870;4.316;2023-04-03T12:06:50;4.82;;;2.33;;
21786;SDS011;11055;50.870;4.316;2023-04-03T12:11:52;3.80;;;2.22;;
21786;SDS011;11055;50.870;4.316;2023-04-03T12:14:21;6.70;;;2.40;;
21786;SDS011;11055;50.870;4.316;2023-04-03T12:16:50;6.87;;;2.47;;
21786;SDS011;11055;50.870;4.316;2023-04-03T12:40:47;2.70;;;1.98;;
21786;SDS011;11055;50.870;4.316;2023-04-03T12:46:53;3.90;;;2.03;;
21786;SDS011;11055;50.870;4.316;2023-04-03T12:49:26;3.83;;;2.40;;
21786;SDS011;11055;50.870;4.316;2023-04-03T12:51:56;2.47;;;1.85;;
21786;SDS011;11055;50.870;4.316;2023-04-03T12:54:23;5.03;;;2.22;;
21786;SDS011;11055;50.870;4.316;2023-04-03T12:59:36;4.65;;;2.00;;
21786;SDS011;11055;50.870;4.316;2023-04-03T13:02:03;4.22;;;1.90;;
21786;SDS011;11055;50.870;4.316;2023-04-03T13:04:42;3.03;;;1.83;;
21786;SDS011;11055;50.870;4.316;2023-04-03T13:07:20;4.55;;;1.90;;
21786;SDS011;11055;50.870;4.316;2023-04-03T13:09:59;3.22;;;1.90;;
21786;SDS011;11055;50.870;4.316;2023-04-03T13:12:28;4.80;;;1.65;;
21786;SDS011;11055;50.870;4.316;2023-04-03T13:14:55;3.72;;;2.00;;
21786;SDS011;11055;50.870;4.316;2023-04-03T13:17:23;5.43;;;1.70;;
21786;SDS011;11055;50.870;4.316;2023-04-03T13:19:49;4.65;;;1.65;;
21786;SDS011;11055;50.870;4.316;2023-04-03T13:22:35;2.72;;;1.45;;
21786;SDS011;11055;50.870;4.316;2023-04-03T13:25:08;2.75;;;1.73;;
21786;SDS011;11055;50.870;4.316;2023-04-03T13:27:38;2.57;;;1.90;;
21786;SDS011;11055;50.870;4.316;2023-04-03T13:30:17;4.28;;;2.78;;
21786;SDS011;11055;50.870;4.316;2023-04-03T13:32:47;2.85;;;1.67;;
21786;SDS011;11055;50.870;4.316;2023-04-03T13:38:25;2.97;;;2.10;;
21786;SDS011;11055;50.870;4.316;2023-04-03T13:40:57;3.22;;;2.08;;
21786;SDS011;11055;50.870;4.316;2023-04-03T13:43:29;4.50;;;1.83;;
21786;SDS011;11055;50.870;4.316;2023-04-03T13:46:02;3.72;;;2.30;;
21786;SDS011;11055;50.870;4.316;2023-04-03T13:48:39;2.22;;;1.75;;
21786;SDS011;11055;50.870;4.316;2023-04-03T13:53:47;2.55;;;1.67;;
21786;SDS011;11055;50.870;4.316;2023-04-03T13:56:26;5.28;;;1.90;;
21786;SDS011;11055;50.870;4.316;2023-04-03T13:59:05;3.58;;;1.90;;
21786;SDS011;11055;50.870;4.316;2023-04-03T14:01:42;4.50;;;1.80;;
21786;SDS011;11055;50.870;4.316;2023-04-03T14:07:11;5.65;;;2.40;;
21786;SDS011;11055;50.870;4.316;2023-04-03T14:09:37;3.72;;;1.73;;
21786;SDS011;11055;50.870;4.316;2023-04-03T14:12:06;3.30;;;1.75;;
21786;SDS011;11055;50.870;4.316;2023-04-03T14:14:37;2.97;;;1.70;;
21786;SDS011;11055;50.870;4.316;2023-04-03T14:17:16;2.88;;;1.60;;
21786;SDS011;11055;50.870;4.316;2023-04-03T14:19:43;3.33;;;1.80;;
21786;SDS011;11055;50.870;4.316;2023-04-03T14:24:44;2.88;;;1.80;;
21786;SDS011;11055;50.870;4.316;2023-04-03T14:27:22;6.55;;;2.25;;
21786;SDS011;11055;50.870;4.316;2023-04-03T14:29:50;3.67;;;1.60;;
21786;SDS011;11055;50.870;4.316;2023-04-03T14:32:19;3.95;;;2.03;;
21786;SDS011;11055;50.870;4.316;2023-04-03T14:34:46;3.30;;;1.80;;
21786;SDS011;11055;50.870;4.316;2023-04-03T14:37:14;3.83;;;1.75;;
21786;SDS011;11055;50.870;4.316;2023-04-03T14:39:43;4.10;;;1.40;;
21786;SDS011;11055;50.870;4.316;2023-04-03T14:42:14;4.50;;;1.58;;
21786;SDS011;11055;50.870;4.316;2023-04-03T14:44:45;4.30;;;1.45;;
21786;SDS011;11055;50.870;4.316;2023-04-03T14:47:12;6.00;;;1.85;;
21786;SDS011;11055;50.870;4.316;2023-04-03T14:49:40;3.75;;;1.70;;
21786;SDS011;11055;50.870;4.316;2023-04-03T14:52:09;2.90;;;1.95;;
21786;SDS011;11055;50.870;4.316;2023-04-03T14:54:46;4.35;;;1.95;;
21786;SDS011;11055;50.870;4.316;2023-04-03T14:57:13;4.13;;;1.60;;
21786;SDS011;11055;50.870;4.316;2023-04-03T14:59:40;4.97;;;1.88;;
21786;SDS011;11055;50.870;4.316;2023-04-03T15:02:49;2.65;;;1.40;;
21786;SDS011;11055;50.870;4.316;2023-04-03T15:04:58;2.03;;;1.42;;
21786;SDS011;11055;50.870;4.316;2023-04-03T15:07:26;6.00;;;1.83;;
21786;SDS011;11055;50.870;4.316;2023-04-03T15:09:53;2.80;;;1.60;;
21786;SDS011;11055;50.870;4.316;2023-04-03T15:12:21;3.53;;;1.45;;
21786;SDS011;11055;50.870;4.316;2023-04-03T15:14:48;2.25;;;1.20;;
21786;SDS011;11055;50.870;4.316;2023-04-03T15:17:17;5.15;;;1.55;;
21786;SDS011;11055;50.870;4.316;2023-04-03T15:19:47;3.92;;;1.80;;
21786;SDS011;11055;50.870;4.316;2023-04-03T15:22:14;2.95;;;1.50;;
21786;SDS011;11055;50.870;4.316;2023-04-03T15:24:42;2.90;;;1.63;;
21786;SDS011;11055;50.870;4.316;2023-04-03T15:27:07;3.80;;;1.30;;
21786;SDS011;11055;50.870;4.316;2023-04-03T15:29:34;3.35;;;1.50;;
21786;SDS011;11055;50.870;4.316;2023-04-03T15:32:00;3.35;;;1.60;;
21786;SDS011;11055;50.870;4.316;2023-04-03T15:34:27;5.85;;;1.45;;
21786;SDS011;11055;50.870;4.316;2023-04-03T15:36:53;2.45;;;1.20;;
21786;SDS011;11055;50.870;4.316;2023-04-03T15:39:18;3.00;;;1.65;;
21786;SDS011;11055;50.870;4.316;2023-04-03T15:41:45;3.85;;;2.33;;
21786;SDS011;11055;50.870;4.316;2023-04-03T15:44:11;9.55;;;4.72;;
21786;SDS011;11055;50.870;4.316;2023-04-03T15:46:38;3.58;;;1.50;;
21786;SDS011;11055;50.870;4.316;2023-04-03T15:49:04;2.45;;;1.48;;
21786;SDS011;11055;50.870;4.316;2023-04-03T15:51:30;1.65;;;1.38;;
21786;SDS011;11055;50.870;4.316;2023-04-03T15:53:56;3.38;;;1.60;;
21786;SDS011;11055;50.870;4.316;2023-04-03T15:56:21;2.28;;;1.50;;
21786;SDS011;11055;50.870;4.316;2023-04-03T15:58:47;5.05;;;1.30;;
21786;SDS011;11055;50.870;4.316;2023-04-03T16:01:13;4.10;;;2.17;;
21786;SDS011;11055;50.870;4.316;2023-04-03T16:03:40;4.22;;;2.40;;
21786;SDS011;11055;50.870;4.316;2023-04-03T16:06:10;4.43;;;2.08;;
21786;SDS011;11055;50.870;4.316;2023-04-03T16:08:37;4.53;;;2.00;;
21786;SDS011;11055;50.870;4.316;2023-04-03T16:11:03;3.33;;;1.58;;
21786;SDS011;11055;50.870;4.316;2023-04-03T16:13:29;3.30;;;1.58;;
21786;SDS011;11055;50.870;4.316;2023-04-03T16:15:55;2.80;;;1.60;;
21786;SDS011;11055;50.870;4.316;2023-04-03T16:18:21;2.88;;;1.42;;
21786;SDS011;11055;50.870;4.316;2023-04-03T16:20:47;4.45;;;2.03;;
21786;SDS011;11055;50.870;4.316;2023-04-03T16:23:13;5.97;;;2.47;;
21786;SDS011;11055;50.870;4.316;2023-04-03T16:25:39;4.88;;;2.90;;
21786;SDS011;11055;50.870;4.316;2023-04-03T16:28:05;4.22;;;3.10;;
21786;SDS011;11055;50.870;4.316;2023-04-03T16:30:31;3.65;;;2.60;;
21786;SDS011;11055;50.870;4.316;2023-04-03T16:32:57;4.20;;;2.90;;
21786;SDS011;11055;50.870;4.316;2023-04-03T16:35:23;3.35;;;1.67;;
21786;SDS011;11055;50.870;4.316;2023-04-03T16:37:49;4.30;;;1.90;;
21786;SDS011;11055;50.870;4.316;2023-04-03T16:40:15;3.25;;;1.95;;
21786;SDS011;11055;50.870;4.316;2023-04-03T16:42:40;3.95;;;1.80;;